createdAt,value
2017-08-17T00:01:17.430Z,17.77
2017-08-17T00:03:44.051Z,13.63
2017-08-17T00:06:10.688Z,15.87
2017-08-17T00:08:37.327Z,11.10
2017-08-17T00:11:03.955Z,12.13
2017-08-17T00:13:30.587Z,12.90
2017-08-17T00:15:57.222Z,14.50
2017-08-17T00:18:23.842Z,16.47
2017-08-17T00:20:50.490Z,13.60
2017-08-17T00:23:17.119Z,15.23
2017-08-17T00:25:43.746Z,11.80
2017-08-17T00:28:10.366Z,8.50
2017-08-17T00:30:37.013Z,9.20
2017-08-17T00:33:03.647Z,11.63
2017-08-17T00:35:30.283Z,11.53
2017-08-17T00:37:56.918Z,14.27
2017-08-17T00:40:23.551Z,14.50
2017-08-17T00:42:50.203Z,16.20
2017-08-17T00:45:16.843Z,12.03
2017-08-17T00:47:43.796Z,12.33
2017-08-17T00:50:10.434Z,18.87
2017-08-17T00:52:37.067Z,15.27
2017-08-17T00:55:03.690Z,12.20
2017-08-17T00:57:30.316Z,7.50
2017-08-17T00:59:56.956Z,10.10
2017-08-17T01:02:23.580Z,16.93
2017-08-17T01:04:50.247Z,14.20
2017-08-17T01:07:16.884Z,17.00
2017-08-17T01:09:43.490Z,20.80
2017-08-17T01:12:10.125Z,21.47
2017-08-17T01:14:36.771Z,19.07
2017-08-17T01:17:03.394Z,22.23
2017-08-17T01:19:30.031Z,22.67
2017-08-17T01:21:56.643Z,23.93
2017-08-17T01:24:23.283Z,27.27
2017-08-17T01:26:49.905Z,21.90
2017-08-17T01:29:16.550Z,21.43
2017-08-17T01:31:43.185Z,16.10
2017-08-17T01:34:09.854Z,20.07
2017-08-17T01:36:36.460Z,25.57
2017-08-17T01:39:03.081Z,26.53
2017-08-17T01:41:29.703Z,31.17
2017-08-17T01:43:56.343Z,23.67
2017-08-17T01:46:22.962Z,25.20
2017-08-17T01:48:49.628Z,21.93
2017-08-17T01:51:16.252Z,27.10
2017-08-17T01:53:42.920Z,24.43
2017-08-17T01:56:09.525Z,25.30
2017-08-17T01:58:36.146Z,25.80
2017-08-17T02:01:02.787Z,29.33
2017-08-17T02:03:29.412Z,23.77
2017-08-17T02:05:56.043Z,28.83
2017-08-17T02:08:22.664Z,34.00
2017-08-17T02:10:49.303Z,25.03
2017-08-17T02:13:15.947Z,25.10
2017-08-17T02:15:42.574Z,26.20
2017-08-17T02:18:09.227Z,25.90
2017-08-17T02:20:35.876Z,31.73
2017-08-17T02:23:02.504Z,26.10
2017-08-17T02:25:29.118Z,32.87
2017-08-17T02:27:55.749Z,29.47
2017-08-17T02:30:22.382Z,27.43
2017-08-17T02:32:49.017Z,29.47
2017-08-17T02:35:15.648Z,35.37
2017-08-17T02:37:42.279Z,29.33
2017-08-17T02:40:08.932Z,26.00
2017-08-17T02:42:35.546Z,27.43
2017-08-17T02:45:02.204Z,26.97
2017-08-17T02:47:28.819Z,25.03
2017-08-17T02:49:55.452Z,23.90
2017-08-17T02:52:22.099Z,25.63
2017-08-17T02:54:49.077Z,33.37
2017-08-17T02:57:15.718Z,27.33
2017-08-17T02:59:42.368Z,30.90
2017-08-17T03:02:09.005Z,32.83
2017-08-17T03:04:35.655Z,28.87
2017-08-17T03:07:02.262Z,36.60
2017-08-17T03:09:28.918Z,34.03
2017-08-17T03:11:55.535Z,32.43
2017-08-17T03:14:22.170Z,32.93
2017-08-17T03:16:48.805Z,50.53
2017-08-17T03:19:15.441Z,35.50
2017-08-17T03:21:42.097Z,33.70
2017-08-17T03:24:08.698Z,31.90
2017-08-17T03:26:35.348Z,23.00
2017-08-17T03:29:01.983Z,29.17
2017-08-17T03:31:28.606Z,31.80
2017-08-17T03:33:55.263Z,28.73
2017-08-17T03:36:21.885Z,36.40
2017-08-17T03:38:48.526Z,35.00
2017-08-17T03:41:15.166Z,29.70
2017-08-17T03:43:41.778Z,27.50
2017-08-17T03:46:08.423Z,27.87
2017-08-17T03:48:35.105Z,30.87
2017-08-17T03:51:01.709Z,35.23
2017-08-17T03:53:28.371Z,28.50
2017-08-17T03:55:55.027Z,32.87
2017-08-17T03:58:21.714Z,27.87
2017-08-17T04:00:48.335Z,27.40
2017-08-17T04:03:14.959Z,28.43
2017-08-17T04:05:41.581Z,27.67
2017-08-17T04:08:08.226Z,29.90
2017-08-17T04:10:34.839Z,33.73
2017-08-17T04:13:01.476Z,34.00
2017-08-17T04:15:28.087Z,28.13
2017-08-17T04:17:54.730Z,29.47
2017-08-17T04:20:21.380Z,29.40
2017-08-17T04:22:48.016Z,28.20
2017-08-17T04:25:14.643Z,28.33
2017-08-17T04:27:41.297Z,29.37
2017-08-17T04:30:07.941Z,29.70
2017-08-17T04:32:34.595Z,29.10
2017-08-17T04:35:01.213Z,35.00
2017-08-17T04:37:27.851Z,31.53
2017-08-17T04:39:54.496Z,26.33
2017-08-17T04:42:21.150Z,35.13
2017-08-17T04:44:47.784Z,31.57
2017-08-17T04:47:14.416Z,28.10
2017-08-17T04:49:41.061Z,31.00
2017-08-17T04:52:11.499Z,26.93
2017-08-17T04:54:38.131Z,29.90
2017-08-17T04:57:16.421Z,32.50
2017-08-17T04:59:43.061Z,32.70
2017-08-17T05:02:09.701Z,23.57
2017-08-17T05:04:36.323Z,27.57
2017-08-17T05:07:02.959Z,33.03
2017-08-17T05:09:29.574Z,27.13
2017-08-17T05:11:56.226Z,23.80
2017-08-17T05:14:22.846Z,24.70
2017-08-17T05:16:49.477Z,31.73
2017-08-17T05:19:16.588Z,27.40
2017-08-17T05:21:43.227Z,25.67
2017-08-17T05:24:09.858Z,26.43
2017-08-17T05:26:36.472Z,21.70
2017-08-17T05:29:03.107Z,24.00
2017-08-17T05:31:29.775Z,22.77
2017-08-17T05:33:56.419Z,31.43
2017-08-17T05:36:23.042Z,19.20
2017-08-17T05:38:49.676Z,22.40
2017-08-17T05:41:16.296Z,24.40
2017-08-17T05:43:42.923Z,24.03
2017-08-17T05:46:09.571Z,22.17
2017-08-17T05:48:36.179Z,22.53
2017-08-17T05:51:02.841Z,20.50
2017-08-17T05:53:29.450Z,24.43
2017-08-17T05:55:56.092Z,29.80
2017-08-17T05:58:22.740Z,26.10
2017-08-17T06:00:49.392Z,25.63
2017-08-17T06:03:16.023Z,20.80
2017-08-17T06:05:42.647Z,27.60
2017-08-17T06:08:09.290Z,19.83
2017-08-17T06:10:35.991Z,22.80
2017-08-17T06:13:02.860Z,24.30
2017-08-17T06:15:29.497Z,20.00
2017-08-17T06:17:56.211Z,16.33
2017-08-17T06:20:22.875Z,16.60
2017-08-17T06:22:49.523Z,20.50
2017-08-17T06:25:16.159Z,25.00
2017-08-17T06:27:42.803Z,19.20
2017-08-17T06:30:09.428Z,22.03
2017-08-17T06:32:36.039Z,17.40
2017-08-17T06:35:02.686Z,19.30
2017-08-17T06:37:29.300Z,22.53
2017-08-17T06:39:56.950Z,18.13
2017-08-17T06:42:23.579Z,15.67
2017-08-17T06:44:50.244Z,15.13
2017-08-17T06:47:16.900Z,16.40
2017-08-17T06:49:43.535Z,18.80
2017-08-17T06:52:10.169Z,19.53
2017-08-17T06:54:36.810Z,18.93
2017-08-17T06:57:03.439Z,14.80
2017-08-17T06:59:30.095Z,15.13
2017-08-17T07:01:56.721Z,15.37
2017-08-17T07:04:23.359Z,17.10
2017-08-17T07:06:49.996Z,15.13
2017-08-17T07:09:16.631Z,18.50
2017-08-17T07:11:43.251Z,16.33
2017-08-17T07:14:09.935Z,15.80
2017-08-17T07:16:36.548Z,14.93
2017-08-17T07:19:03.210Z,13.27
2017-08-17T07:21:29.855Z,17.67
2017-08-17T07:23:56.492Z,14.90
2017-08-17T07:26:23.168Z,14.73
2017-08-17T07:28:49.784Z,14.63
2017-08-17T07:31:16.419Z,14.23
2017-08-17T07:33:43.087Z,11.27
2017-08-17T07:36:09.711Z,12.67
2017-08-17T07:38:36.332Z,10.30
2017-08-17T07:41:02.957Z,12.70
2017-08-17T07:43:29.598Z,13.47
2017-08-17T07:45:56.220Z,19.43
2017-08-17T07:48:22.833Z,9.80
2017-08-17T07:50:49.496Z,12.33
2017-08-17T07:53:16.124Z,8.97
2017-08-17T07:55:42.748Z,9.00
2017-08-17T07:58:09.360Z,11.20
2017-08-17T08:00:35.997Z,12.77
2017-08-17T08:03:02.622Z,8.43
2017-08-17T08:05:29.251Z,8.30
2017-08-17T08:07:55.876Z,8.93
2017-08-17T08:10:22.520Z,11.20
2017-08-17T08:12:49.163Z,9.80
2017-08-17T08:15:15.780Z,9.00
2017-08-17T08:17:42.428Z,14.63
2017-08-17T08:20:09.034Z,9.90
2017-08-17T08:22:35.679Z,10.23
2017-08-17T08:25:02.315Z,12.07
2017-08-17T08:27:28.943Z,9.00
2017-08-17T08:29:55.563Z,9.10
2017-08-17T08:32:22.199Z,10.60
2017-08-17T08:34:48.882Z,9.73
2017-08-17T08:37:15.531Z,10.83
2017-08-17T08:39:42.185Z,8.73
2017-08-17T08:42:08.798Z,8.67
2017-08-17T08:44:35.458Z,11.20
2017-08-17T08:47:02.102Z,11.90
2017-08-17T08:49:28.704Z,16.83
2017-08-17T08:51:55.339Z,11.20
2017-08-17T08:54:21.947Z,12.63
2017-08-17T08:56:48.585Z,9.60
2017-08-17T08:59:15.225Z,13.83
2017-08-17T09:01:41.865Z,11.80
2017-08-17T09:04:08.502Z,9.33
2017-08-17T09:06:35.153Z,13.40
2017-08-17T09:09:01.793Z,11.73
2017-08-17T09:11:28.420Z,13.83
2017-08-17T09:13:55.048Z,10.23
2017-08-17T09:16:21.741Z,9.60
2017-08-17T09:18:48.360Z,10.07
2017-08-17T09:21:15.026Z,14.60
2017-08-17T09:23:41.640Z,12.00
2017-08-17T09:26:08.280Z,10.03
2017-08-17T09:28:34.918Z,8.53
2017-08-17T09:31:01.548Z,12.50
2017-08-17T09:33:28.175Z,6.33
2017-08-17T09:35:54.797Z,9.80
2017-08-17T09:38:21.415Z,10.13
2017-08-17T09:40:48.055Z,7.73
2017-08-17T09:43:14.678Z,7.07
2017-08-17T09:45:41.315Z,5.90
2017-08-17T09:48:07.985Z,9.90
2017-08-17T09:50:34.608Z,7.00
2017-08-17T09:53:01.243Z,6.83
2017-08-17T09:55:27.864Z,6.00
2017-08-17T09:57:54.483Z,7.80
2017-08-17T10:00:21.119Z,9.57
2017-08-17T10:02:47.738Z,6.80
2017-08-17T10:05:14.377Z,8.53
2017-08-17T10:07:41.021Z,11.20
2017-08-17T10:10:07.644Z,9.00
2017-08-17T10:12:34.268Z,6.23
2017-08-17T10:15:00.905Z,7.80
2017-08-17T10:17:28.463Z,7.77
2017-08-17T10:19:55.088Z,6.07
2017-08-17T10:22:21.698Z,8.40
2017-08-17T10:24:48.320Z,10.63
2017-08-17T10:27:14.967Z,5.43
2017-08-17T10:29:41.572Z,8.50
2017-08-17T10:32:08.214Z,6.53
2017-08-17T10:34:35.258Z,6.93
2017-08-17T10:37:01.873Z,7.70
2017-08-17T10:39:28.536Z,7.03
2017-08-17T10:41:56.887Z,10.83
2017-08-17T10:44:23.562Z,8.00
2017-08-17T10:46:50.194Z,6.97
2017-08-17T10:49:16.845Z,7.57
2017-08-17T10:51:43.483Z,5.63
2017-08-17T10:54:10.123Z,7.87
2017-08-17T10:56:36.731Z,6.50
2017-08-17T10:59:04.387Z,7.70
2017-08-17T11:01:31.919Z,6.90
2017-08-17T11:03:58.547Z,7.83
2017-08-17T11:06:25.179Z,12.07
2017-08-17T11:08:51.785Z,6.40
2017-08-17T11:11:18.808Z,3.90
2017-08-17T11:13:45.424Z,4.03
2017-08-17T11:16:12.083Z,7.13
2017-08-17T11:18:39.258Z,5.60
2017-08-17T11:21:05.898Z,3.80
2017-08-17T11:23:32.511Z,4.03
2017-08-17T11:25:59.131Z,3.53
2017-08-17T11:28:25.784Z,4.17
2017-08-17T11:30:52.459Z,5.87
2017-08-17T11:33:19.115Z,5.07
2017-08-17T11:35:45.720Z,2.63
2017-08-17T11:38:12.364Z,3.90
2017-08-17T11:40:38.966Z,5.97
2017-08-17T11:43:05.608Z,4.30
2017-08-17T11:45:32.240Z,3.40
2017-08-17T11:47:58.860Z,4.90
2017-08-17T11:50:26.649Z,11.00
2017-08-17T11:52:53.263Z,2.70
2017-08-17T11:55:23.720Z,3.90
2017-08-17T11:57:51.052Z,7.03
2017-08-17T12:00:17.672Z,4.10
2017-08-17T12:02:49.476Z,5.40
2017-08-17T12:05:16.191Z,4.90
2017-08-17T12:07:42.825Z,7.90
2017-08-17T12:10:09.492Z,7.40
2017-08-17T12:12:40.786Z,3.63
2017-08-17T12:15:10.190Z,5.93
2017-08-17T12:17:36.827Z,6.87
2017-08-17T12:20:08.961Z,4.70
2017-08-17T12:22:35.632Z,5.43
2017-08-17T12:25:07.195Z,4.27
2017-08-17T12:27:36.039Z,4.97
2017-08-17T12:30:02.662Z,4.93
2017-08-17T12:32:32.372Z,7.93
2017-08-17T12:35:00.819Z,8.43
2017-08-17T12:37:27.459Z,5.07
2017-08-17T12:39:54.086Z,8.13
2017-08-17T12:42:30.292Z,5.87
2017-08-17T12:44:56.918Z,5.40
2017-08-17T12:47:23.538Z,2.80
2017-08-17T12:49:50.156Z,5.47
2017-08-17T12:52:16.792Z,3.50
2017-08-17T12:54:43.422Z,5.80
2017-08-17T12:57:10.059Z,4.03
2017-08-17T12:59:36.674Z,2.33
2017-08-17T13:02:03.321Z,2.77
2017-08-17T13:04:29.956Z,3.40
2017-08-17T13:06:56.568Z,17.50
2017-08-17T13:09:23.192Z,4.03
2017-08-17T13:11:49.796Z,6.33
2017-08-17T13:14:16.444Z,4.10
2017-08-17T13:16:44.012Z,3.27
2017-08-17T13:19:10.618Z,3.43
2017-08-17T13:21:37.243Z,5.00
2017-08-17T13:24:03.871Z,4.00
2017-08-17T13:26:30.511Z,4.13
2017-08-17T13:28:57.128Z,6.00
2017-08-17T13:31:23.758Z,3.30
2017-08-17T13:33:50.391Z,5.90
2017-08-17T13:36:17.028Z,16.90
2017-08-17T13:38:43.679Z,3.57
2017-08-17T13:41:10.332Z,8.53
2017-08-17T13:43:36.946Z,10.90
2017-08-17T13:46:03.827Z,4.27
2017-08-17T13:48:30.521Z,5.10
2017-08-17T13:50:57.139Z,6.70
2017-08-17T13:53:24.183Z,4.13
2017-08-17T13:55:50.858Z,3.10
2017-08-17T13:58:17.479Z,3.83
2017-08-17T14:00:45.391Z,3.90
2017-08-17T14:03:12.281Z,3.60
2017-08-17T14:05:39.162Z,2.73
2017-08-17T14:08:05.789Z,3.30
2017-08-17T14:10:32.415Z,4.00
2017-08-17T14:12:59.660Z,4.57
2017-08-17T14:15:26.280Z,8.77
2017-08-17T14:17:52.954Z,3.20
2017-08-17T14:20:19.607Z,5.87
2017-08-17T14:22:46.228Z,2.93
2017-08-17T14:25:12.839Z,5.10
2017-08-17T14:27:39.484Z,3.00
2017-08-17T14:30:06.108Z,3.53
2017-08-17T14:32:32.737Z,6.87
2017-08-17T14:34:59.392Z,3.10
2017-08-17T14:37:26.029Z,3.57
2017-08-17T14:39:52.683Z,5.40
2017-08-17T14:42:19.308Z,4.80
2017-08-17T14:44:45.934Z,3.03
2017-08-17T14:47:12.550Z,6.70
2017-08-17T14:49:39.207Z,3.43
2017-08-17T14:52:05.839Z,4.10
2017-08-17T14:54:32.459Z,3.30
2017-08-17T14:56:59.108Z,4.03
2017-08-17T14:59:25.722Z,4.03
2017-08-17T15:01:52.358Z,5.87
2017-08-17T15:04:18.991Z,5.17
2017-08-17T15:06:45.626Z,15.60
2017-08-17T15:09:12.250Z,4.20
2017-08-17T15:11:38.865Z,6.20
2017-08-17T15:14:05.490Z,6.03
2017-08-17T15:16:32.117Z,5.53
2017-08-17T15:18:58.754Z,5.70
2017-08-17T15:21:25.389Z,4.00
2017-08-17T15:23:52.013Z,9.87
2017-08-17T15:26:18.637Z,3.00
2017-08-17T15:28:45.249Z,6.50
2017-08-17T15:31:11.887Z,3.70
2017-08-17T15:33:38.511Z,7.60
2017-08-17T15:36:05.112Z,5.03
2017-08-17T15:38:31.770Z,4.77
2017-08-17T15:40:58.382Z,10.80
2017-08-17T15:43:25.009Z,4.70
2017-08-17T15:45:51.630Z,4.87
2017-08-17T15:48:18.305Z,3.93
2017-08-17T15:50:44.935Z,4.67
2017-08-17T15:53:11.562Z,3.73
2017-08-17T15:55:38.560Z,4.27
2017-08-17T15:58:05.189Z,4.70
2017-08-17T16:00:31.856Z,4.63
2017-08-17T16:02:58.471Z,5.07
2017-08-17T16:05:25.095Z,4.77
2017-08-17T16:07:51.711Z,7.23
2017-08-17T16:10:18.347Z,4.40
2017-08-17T16:12:44.973Z,4.80
2017-08-17T16:15:11.579Z,6.43
2017-08-17T16:17:38.225Z,4.53
2017-08-17T16:20:04.854Z,8.90
2017-08-17T16:22:31.492Z,5.17
2017-08-17T16:24:58.115Z,9.43
2017-08-17T16:27:24.759Z,4.23
2017-08-17T16:29:51.367Z,7.10
2017-08-17T16:32:18.002Z,5.10
2017-08-17T16:34:44.644Z,6.17
2017-08-17T16:37:11.250Z,5.63
2017-08-17T16:39:37.875Z,4.50
2017-08-17T16:42:04.527Z,6.23
2017-08-17T16:44:31.156Z,4.00
2017-08-17T16:46:57.767Z,4.97
2017-08-17T16:49:24.436Z,5.07
2017-08-17T16:51:51.068Z,4.47
2017-08-17T16:54:17.682Z,3.67
2017-08-17T16:56:44.332Z,10.03
2017-08-17T16:59:52.649Z,6.30
2017-08-17T17:02:19.289Z,4.47
2017-08-17T17:04:45.917Z,4.33
2017-08-17T17:07:12.543Z,4.13
2017-08-17T17:09:39.209Z,5.37
2017-08-17T17:12:05.862Z,3.40
2017-08-17T17:14:32.878Z,6.77
2017-08-17T17:16:59.529Z,3.57
2017-08-17T17:19:26.153Z,12.63
2017-08-17T17:21:52.778Z,4.50
2017-08-17T17:24:19.419Z,3.97
2017-08-17T17:26:46.057Z,2.80
2017-08-17T17:29:12.711Z,2.90
2017-08-17T17:31:39.327Z,4.70
2017-08-17T17:34:05.979Z,4.10
2017-08-17T17:36:32.610Z,3.10
2017-08-17T17:38:59.223Z,4.40
2017-08-17T17:41:25.854Z,3.93
2017-08-17T17:43:52.495Z,4.27
2017-08-17T17:46:19.133Z,3.30
2017-08-17T17:48:45.775Z,2.30
2017-08-17T17:51:12.402Z,3.73
2017-08-17T17:53:39.035Z,3.80
2017-08-17T17:56:06.053Z,1.90
2017-08-17T17:58:32.653Z,3.20
2017-08-17T18:00:59.271Z,3.70
2017-08-17T18:03:25.909Z,2.90
2017-08-17T18:05:52.837Z,3.20
2017-08-17T18:08:19.477Z,2.63
2017-08-17T18:10:46.991Z,2.40
2017-08-17T18:13:13.624Z,4.00
2017-08-17T18:15:40.235Z,3.10
2017-08-17T18:18:06.927Z,2.80
2017-08-17T18:20:33.556Z,3.00
2017-08-17T18:23:00.207Z,2.73
2017-08-17T18:25:26.825Z,4.30
2017-08-17T18:27:53.466Z,2.90
2017-08-17T18:30:20.120Z,3.03
2017-08-17T18:32:47.336Z,3.37
2017-08-17T18:35:13.980Z,2.57
2017-08-17T18:37:40.594Z,3.30
2017-08-17T18:40:07.211Z,2.30
2017-08-17T18:42:33.843Z,3.70
2017-08-17T18:45:00.489Z,3.00
2017-08-17T18:47:27.130Z,3.10
2017-08-17T18:49:53.798Z,3.87
2017-08-17T18:52:20.433Z,3.57
2017-08-17T18:54:47.094Z,2.90
2017-08-17T18:57:13.718Z,3.03
2017-08-17T18:59:40.342Z,2.57
2017-08-17T19:02:06.987Z,3.07
2017-08-17T19:04:33.647Z,4.03
2017-08-17T19:07:00.303Z,2.60
2017-08-17T19:09:26.935Z,7.23
2017-08-17T19:11:53.565Z,4.13
2017-08-17T19:14:20.297Z,4.50
2017-08-17T19:16:46.924Z,2.80
2017-08-17T19:19:13.572Z,2.93
2017-08-17T19:21:40.198Z,3.40
2017-08-17T19:24:06.828Z,3.03
2017-08-17T19:26:33.447Z,3.33
2017-08-17T19:29:00.116Z,2.60
2017-08-17T19:31:26.826Z,3.80
2017-08-17T19:33:53.450Z,2.33
2017-08-17T19:36:20.107Z,3.20
2017-08-17T19:38:46.729Z,3.43
2017-08-17T19:41:13.376Z,4.10
2017-08-17T19:43:40.029Z,3.13
2017-08-17T19:46:06.636Z,5.63
2017-08-17T19:48:33.299Z,3.67
2017-08-17T19:50:59.957Z,2.67
2017-08-17T19:53:26.600Z,4.40
2017-08-17T19:55:53.244Z,2.20
2017-08-17T19:58:19.893Z,3.23
2017-08-17T20:00:47.032Z,2.43
2017-08-17T20:03:13.650Z,3.53
2017-08-17T20:05:40.282Z,3.00
2017-08-17T20:08:06.928Z,2.60
2017-08-17T20:10:33.608Z,2.30
2017-08-17T20:13:00.237Z,2.47
2017-08-17T20:15:27.258Z,6.13
2017-08-17T20:17:53.963Z,3.33
2017-08-17T20:20:20.580Z,3.10
2017-08-17T20:22:47.236Z,3.60
2017-08-17T20:25:13.882Z,2.80
2017-08-17T20:27:40.515Z,1.80
2017-08-17T20:30:07.189Z,2.60
2017-08-17T20:32:33.809Z,4.83
2017-08-17T20:35:00.446Z,3.70
2017-08-17T20:37:27.078Z,2.13
2017-08-17T20:39:53.731Z,2.70
2017-08-17T20:42:20.376Z,5.50
2017-08-17T20:44:46.979Z,5.80
2017-08-17T20:47:13.619Z,2.60
2017-08-17T20:49:40.259Z,2.13
2017-08-17T20:52:06.899Z,2.47
2017-08-17T20:54:33.518Z,4.53
2017-08-17T20:57:00.159Z,4.50
2017-08-17T20:59:26.793Z,3.27
2017-08-17T21:01:53.409Z,4.90
2017-08-17T21:04:20.033Z,2.60
2017-08-17T21:06:46.667Z,2.83
2017-08-17T21:09:13.288Z,5.33
2017-08-17T21:11:39.917Z,4.87
2017-08-17T21:14:06.529Z,2.97
2017-08-17T21:16:33.160Z,3.17
2017-08-17T21:18:59.788Z,6.70
2017-08-17T21:21:26.442Z,7.03
2017-08-17T21:23:53.075Z,4.50
2017-08-17T21:26:19.711Z,2.47
2017-08-17T21:28:46.354Z,3.03
2017-08-17T21:31:12.979Z,2.47
2017-08-17T21:33:39.604Z,3.93
2017-08-17T21:36:06.215Z,4.07
2017-08-17T21:38:32.859Z,3.80
2017-08-17T21:40:59.488Z,4.23
2017-08-17T21:43:26.109Z,3.20
2017-08-17T21:45:53.357Z,2.37
2017-08-17T21:48:20.001Z,4.30
2017-08-17T21:50:46.648Z,2.37
2017-08-17T21:53:13.262Z,3.03
2017-08-17T21:55:39.879Z,2.83
2017-08-17T21:58:06.503Z,3.43
2017-08-17T22:00:33.132Z,3.27
2017-08-17T22:02:59.754Z,2.90
2017-08-17T22:05:26.384Z,2.87
2017-08-17T22:07:53.016Z,3.80
2017-08-17T22:10:19.639Z,3.60
2017-08-17T22:12:46.277Z,3.23
2017-08-17T22:15:12.926Z,3.27
2017-08-17T22:17:39.586Z,2.70
2017-08-17T22:20:06.210Z,2.70
2017-08-17T22:22:32.868Z,3.17
2017-08-17T22:24:59.514Z,2.73
2017-08-17T22:27:26.142Z,4.47
2017-08-17T22:29:52.763Z,3.70
2017-08-17T22:32:19.393Z,3.53
2017-08-17T22:34:46.038Z,4.53
2017-08-17T22:37:12.638Z,4.33
2017-08-17T22:39:39.269Z,5.33
2017-08-17T22:42:05.909Z,3.10
2017-08-17T22:44:32.526Z,4.30
2017-08-17T22:46:59.153Z,5.07
2017-08-17T22:49:25.775Z,4.33
2017-08-17T22:51:52.404Z,5.23
2017-08-17T22:54:19.054Z,4.53
2017-08-17T22:56:45.715Z,4.00
2017-08-17T22:59:12.344Z,3.00
2017-08-17T23:01:38.986Z,4.43
2017-08-17T23:04:05.612Z,3.30
2017-08-17T23:06:32.256Z,5.20
2017-08-17T23:08:58.874Z,4.20
2017-08-17T23:11:25.492Z,4.80
2017-08-17T23:13:52.138Z,4.70
2017-08-17T23:16:18.780Z,4.43
2017-08-17T23:18:45.407Z,4.33
2017-08-17T23:21:12.022Z,4.80
2017-08-17T23:23:38.670Z,3.47
2017-08-17T23:26:05.303Z,4.87
2017-08-17T23:28:31.915Z,4.80
2017-08-17T23:30:58.549Z,4.23
2017-08-17T23:33:25.194Z,4.37
2017-08-17T23:35:51.822Z,8.43
2017-08-17T23:38:18.455Z,5.40
2017-08-17T23:40:45.089Z,3.80
2017-08-17T23:43:11.712Z,4.77
2017-08-17T23:45:38.343Z,6.00
2017-08-17T23:48:04.963Z,4.23
2017-08-17T23:50:31.614Z,7.33
2017-08-17T23:52:58.247Z,5.40
2017-08-17T23:55:24.898Z,7.97
2017-08-17T23:57:51.509Z,4.03
